.
WxDataArchive / Data Records for 2011-05-02
2011-05-01 May 2011 2011-05-03

Data Records for Monday, 02 May 2011

Time	Temp	Chill	HIndex	Humid	Dewpt	 Wind 	HiWind	WindDir	Rain 	Barom 
-----	----	-----	------	-----	-----	------	------	-------	-----	----- 
00:00	55.9	55.9	55.9	50	37.5	0	2	292	0.00	30.006 
00:05	55.9	55.9	55.9	51	38.0	0	3	292	0.00	30.006 
00:10	55.7	55.7	55.7	52	38.3	0	1	292	0.00	30.006 
00:15	55.6	55.6	55.6	52	38.3	0	3	292	0.00	30.002 
00:20	55.4	55.4	55.4	54	39.0	0	3	292	0.00	30.002 
00:25	55.3	55.3	55.3	54	38.9	0	2	292	0.00	30.002 
00:30	55.1	55.1	55.1	56	39.7	0	1	292	0.00	30.007 
00:35	54.8	54.8	54.8	57	39.9	0	1	292	0.00	30.007 
00:40	54.8	54.8	54.8	56	39.4	0	1	292	0.00	30.007 
00:45	54.7	54.7	54.7	57	39.8	0	1	292	0.00	30.006 
00:50	54.7	54.7	54.7	57	39.8	0	1	292	0.00	30.006 
00:55	54.7	54.7	54.7	59	40.7	0	1	292	0.00	30.006 
01:00	54.5	54.5	54.5	60	40.9	0	2	292	0.00	30.007 
01:05	54.2	54.2	54.2	61	41.0	0	1	292	0.00	30.007 
01:10	54.1	54.1	54.1	62	41.4	0	1	292	0.00	30.007 
01:15	53.9	53.9	53.9	62	41.2	0	1	292	0.00	30.002 
01:20	53.8	53.8	53.8	63	41.5	0	0	---	0.00	30.002 
01:25	53.8	53.8	53.8	64	41.9	0	0	---	0.00	30.002 
01:30	53.8	53.8	53.8	63	41.5	0	1	292	0.00	30.009 
01:35	53.6	53.6	53.6	64	41.7	0	0	---	0.00	30.009 
01:40	53.6	53.6	53.6	63	41.3	0	0	---	0.00	30.009 
01:45	53.6	53.6	53.6	63	41.3	0	1	292	0.00	30.017 
01:50	53.6	53.6	53.6	63	41.3	0	0	---	0.00	30.017 
01:55	53.6	53.6	53.6	62	40.9	0	0	---	0.00	30.017 
02:00	53.6	53.6	53.6	63	41.3	0	1	292	0.00	30.014 
02:05	53.6	53.6	53.6	62	40.9	0	1	292	0.00	30.014 
02:10	53.6	53.6	53.6	62	40.9	0	1	292	0.00	30.014 
02:15	53.6	53.6	53.6	60	40.1	1	2	292	0.00	30.033 
02:20	53.8	53.8	53.8	59	39.8	1	3	292	0.00	30.033 
02:25	53.6	53.6	53.6	58	39.2	1	5	315	0.00	30.033 
02:30	53.6	53.6	53.6	58	39.2	2	4	292	0.00	30.031 
02:35	53.3	53.3	53.3	60	39.8	1	5	292	0.00	30.031 
02:40	53.1	53.1	53.1	61	40.0	1	4	292	0.00	30.031 
02:45	52.8	52.8	52.8	64	41.0	1	3	315	0.00	30.055 
02:50	52.2	52.2	52.2	66	41.2	2	4	315	0.00	30.055 
02:55	51.4	51.4	51.4	69	41.6	2	4	315	0.00	30.055 
03:00	51.0	51.0	51.0	72	42.3	1	3	270	0.00	30.065 
03:05	50.4	50.4	50.4	73	42.1	1	4	248	0.00	30.065 
03:10	50.1	50.1	50.1	75	42.5	1	2	248	0.00	30.065 
03:15	49.6	49.6	49.6	77	42.7	0	3	270	0.00	30.066 
03:20	49.4	49.4	49.4	78	42.8	0	3	315	0.00	30.066 
03:25	49.1	49.1	49.1	79	42.9	1	3	315	0.00	30.066 
03:30	48.9	48.9	48.9	80	43.0	0	3	315	0.00	30.075 
03:35	48.8	48.8	48.8	82	43.6	0	2	338	0.00	30.075 
03:40	48.5	48.5	48.5	82	43.3	1	4	0	0.00	30.075 
03:45	48.3	48.3	48.3	83	43.4	0	2	0	0.00	30.071 
03:50	48.2	48.2	48.2	84	43.6	0	2	0	0.00	30.071 
03:55	48.0	48.0	48.0	84	43.4	0	2	0	0.00	30.071 
04:00	48.0	48.0	48.0	85	43.7	0	1	0	0.00	30.065 
04:05	48.0	48.0	48.0	85	43.7	0	1	0	0.00	30.065 
04:10	48.0	48.0	48.0	86	44.0	0	1	0	0.00	30.065 
04:15	47.9	47.9	47.9	86	43.9	0	1	0	0.00	30.066 
04:20	47.9	47.9	47.9	86	43.9	0	2	0	0.00	30.066 
04:25	47.9	47.9	47.9	87	44.2	0	2	0	0.00	30.066 
04:30	48.0	48.0	48.0	87	44.3	0	1	0	0.00	30.066 
04:35	48.0	48.0	48.0	87	44.3	0	0	---	0.00	30.066 
04:40	48.0	48.0	48.0	86	44.0	0	1	0	0.00	30.066 
04:45	48.0	48.0	48.0	86	44.0	0	2	0	0.00	30.055 
04:50	48.2	48.2	48.2	86	44.2	0	1	0	0.00	30.055 
04:55	48.2	48.2	48.2	85	43.9	0	2	0	0.00	30.055 
05:00	48.2	48.2	48.2	85	43.9	0	2	0	0.00	30.044 
05:05	48.3	48.3	48.3	85	44.0	1	4	338	0.00	30.044 
05:10	48.2	48.2	48.2	84	43.6	0	4	270	0.00	30.044 
05:15	48.2	48.2	48.2	84	43.6	1	2	315	0.00	30.043 
05:20	48.2	48.2	48.2	82	43.0	1	6	315	0.00	30.043 
05:25	48.0	48.0	48.0	81	42.5	1	6	315	0.00	30.043 
05:30	48.0	48.0	48.0	79	41.8	1	4	315	0.00	30.050 
05:35	48.0	48.0	48.0	78	41.5	0	2	315	0.00	30.050 
05:40	48.0	48.0	48.0	78	41.5	1	3	338	0.00	30.050 
05:45	48.0	48.0	48.0	78	41.5	0	2	22	0.00	30.052 
05:50	48.0	48.0	48.0	78	41.5	0	2	22	0.00	30.052 
05:55	48.0	48.0	48.0	77	41.1	0	1	22	0.00	30.052 
06:00	48.0	48.0	48.0	78	41.5	0	0	---	0.00	30.054 
06:05	48.0	48.0	48.0	77	41.1	0	0	---	0.00	30.054 
06:10	48.0	48.0	48.0	77	41.1	0	1	22	0.00	30.054 
06:15	48.0	48.0	48.0	77	41.1	0	1	22	0.00	30.060 
06:20	48.2	48.2	48.2	77	41.3	0	0	---	0.00	30.060 
06:25	48.2	48.2	48.2	76	41.0	0	0	---	0.00	30.060 
06:30	48.2	48.2	48.2	76	41.0	0	1	22	0.00	30.058 
06:35	48.2	48.2	48.2	76	41.0	0	0	---	0.00	30.058 
06:40	48.2	48.2	48.2	76	41.0	0	1	22	0.00	30.058 
06:45	48.2	48.2	48.2	75	40.7	0	1	22	0.00	30.062 
06:50	48.3	48.3	48.3	74	40.4	0	3	270	0.00	30.062 
06:55	48.3	48.3	48.3	74	40.4	0	3	90	0.00	30.062 
07:00	48.3	48.3	48.3	73	40.1	0	2	90	0.00	30.064 
07:05	48.3	48.3	48.3	73	40.1	0	1	90	0.00	30.064 
07:10	48.3	48.3	48.3	73	40.1	0	1	90	0.00	30.064 
07:15	48.3	48.3	48.3	74	40.4	0	0	---	0.00	30.084 
07:20	48.3	48.3	48.3	73	40.1	0	1	90	0.00	30.084 
07:25	48.3	48.3	48.3	73	40.1	0	2	90	0.00	30.084 
07:30	48.3	48.3	48.3	73	40.1	0	2	90	0.00	30.106 
07:35	48.3	48.3	48.3	73	40.1	0	1	90	0.00	30.106 
07:40	48.3	48.3	48.3	73	40.1	0	2	90	0.00	30.106 
07:45	48.2	48.2	48.2	75	40.7	0	0	---	0.00	30.124 
07:50	48.2	48.2	48.2	74	40.3	0	0	---	0.00	30.124 
07:55	48.2	48.2	48.2	74	40.3	0	0	---	0.00	30.124 
08:00	48.2	48.2	48.2	74	40.3	0	1	90	0.00	30.126 
08:05	48.2	48.2	48.2	75	40.7	0	2	90	0.00	30.126 
08:10	48.2	48.2	48.2	76	41.0	0	1	90	0.00	30.126 
08:15	48.2	48.2	48.2	76	41.0	0	1	90	0.00	30.136 
08:20	48.0	48.0	48.0	77	41.1	0	2	90	0.00	30.136 
08:25	48.0	48.0	48.0	79	41.8	0	1	90	0.00	30.136 
08:30	47.9	47.9	47.9	80	42.0	0	2	90	0.00	30.143 
08:35	47.7	47.7	47.7	82	42.5	0	1	90	0.00	30.143 
08:40	47.6	47.6	47.6	83	42.7	0	2	90	0.00	30.143 
08:45	47.4	47.4	47.4	83	42.5	0	1	90	0.00	30.151 
08:50	47.4	47.4	47.4	84	42.8	0	0	---	0.00	30.151 
08:55	47.1	47.1	47.1	82	41.9	0	2	90	0.00	30.151 
09:00	47.3	47.3	47.3	82	42.1	0	0	---	0.00	30.155 
09:05	47.3	47.3	47.3	82	42.1	0	1	90	0.01	30.155 
09:10	47.4	47.4	47.4	81	41.9	0	0	---	0.00	30.155 
09:15	47.4	47.4	47.4	81	41.9	0	0	---	0.00	30.159 
09:20	47.6	47.6	47.6	82	42.4	0	0	---	0.00	30.159 
09:25	47.6	47.6	47.6	82	42.4	0	0	---	0.00	30.159 
09:30	47.7	47.7	47.7	81	42.2	0	0	---	0.00	30.158 
09:35	47.9	47.9	47.9	81	42.4	0	0	---	0.00	30.158 
09:40	48.0	48.0	48.0	81	42.5	0	0	---	0.00	30.158 
09:45	48.3	48.3	48.3	80	42.4	0	1	90	0.00	30.148 
09:50	48.5	48.5	48.5	78	42.0	0	3	90	0.00	30.148 
09:55	48.6	48.6	48.6	76	41.4	1	4	90	0.00	30.148 
10:00	48.8	48.8	48.8	75	41.2	1	4	90	0.00	30.125 
10:05	49.1	49.1	49.1	75	41.5	2	4	90	0.00	30.125 
10:10	49.2	49.2	49.2	73	40.9	2	4	90	0.00	30.125 
10:15	49.4	49.4	49.4	72	40.8	2	4	90	0.00	30.118 
10:20	49.5	49.5	49.5	71	40.5	2	5	90	0.00	30.118 
10:25	49.6	49.6	49.6	71	40.6	2	4	90	0.00	30.118 
10:30	49.6	49.6	49.6	69	39.9	2	6	90	0.00	30.126 
10:35	49.8	49.8	49.8	68	39.7	1	4	90	0.00	30.126 
10:40	49.9	49.9	49.9	68	39.8	1	4	90	0.00	30.126 
10:45	50.2	50.2	50.2	67	39.7	1	3	90	0.00	30.113 
10:50	50.5	50.5	50.5	65	39.2	1	3	90	0.00	30.113 
10:55	50.7	50.7	50.7	64	39.0	0	2	90	0.00	30.113 
11:00	50.8	50.8	50.8	62	38.3	1	3	90	0.00	30.110 
11:05	51.1	51.1	51.1	62	38.5	1	4	90	0.00	30.110 
11:10	51.3	51.3	51.3	57	36.6	2	5	90	0.00	30.110 
11:15	51.3	51.3	51.3	58	37.0	2	3	90	0.00	30.123 
11:20	51.6	51.6	51.6	60	38.2	0	2	90	0.00	30.123 
11:25	51.9	51.9	51.9	60	38.5	1	4	90	0.00	30.123 
11:30	52.0	52.0	52.0	56	36.8	0	2	90	0.00	30.154 
11:35	51.9	51.9	51.9	57	37.1	0	2	90	0.00	30.154 
11:40	51.9	51.9	51.9	59	38.0	0	3	90	0.00	30.154 
11:45	51.9	51.9	51.9	57	37.1	0	3	90	0.00	30.155 
11:50	52.2	52.2	52.2	60	38.7	0	0	---	0.00	30.155 
11:55	52.3	52.3	52.3	57	37.5	0	1	90	0.00	30.155 
12:00	52.6	52.6	52.6	56	37.4	0	1	90	0.00	30.173 
12:05	53.1	53.1	53.1	57	38.3	0	1	90	0.00	30.173 
12:10	53.3	53.3	53.3	57	38.5	0	2	90	0.00	30.173 
12:15	53.8	53.8	53.8	58	39.4	0	3	90	0.00	30.178 
12:20	53.8	53.8	53.8	58	39.4	0	2	90	0.01	30.178 
12:25	53.9	53.9	53.9	58	39.5	1	2	225	0.00	30.178 
12:30	53.9	53.9	53.9	58	39.5	1	2	225	0.00	30.188 
12:35	53.9	53.9	53.9	57	39.0	1	3	225	0.00	30.188 
12:40	53.6	53.6	53.6	56	38.3	0	2	225	0.00	30.188 
12:45	53.5	53.5	53.5	48	34.3	1	3	338	0.00	30.177 
12:50	53.5	53.5	53.5	49	34.8	1	3	315	0.00	30.177 
12:55	53.9	53.9	53.9	48	34.7	1	4	315	0.00	30.177 
13:00	54.1	54.1	54.1	47	34.3	1	4	292	0.00	30.176 
13:05	54.2	54.2	54.2	45	33.3	1	4	315	0.00	30.176 
13:10	54.2	54.2	54.2	44	32.8	2	5	270	0.00	30.176 
13:15	54.4	54.4	54.4	46	34.1	1	2	338	0.00	30.184 
13:20	54.5	54.5	54.5	46	34.1	1	3	315	0.00	30.184 
13:25	54.5	54.5	54.5	46	34.1	1	2	315	0.00	30.184 
13:30	54.5	54.5	54.5	48	35.2	1	3	315	0.00	30.171 
13:35	54.5	54.5	54.5	47	34.7	1	5	270	0.00	30.171 
13:40	55.0	55.0	55.0	49	36.2	1	3	270	0.00	30.171 
13:45	55.1	55.1	55.1	48	35.8	1	3	292	0.00	30.172 
13:50	55.0	55.0	55.0	47	35.1	1	5	270	0.00	30.172 
13:55	55.0	55.0	55.0	46	34.6	1	3	292	0.00	30.172 
14:00	55.3	55.3	55.3	44	33.8	1	3	292	0.00	30.162 
14:05	55.4	55.4	55.4	42	32.7	1	3	292	0.00	30.162 
14:10	55.4	55.4	55.4	45	34.4	1	3	292	0.00	30.162 
14:15	55.3	55.3	55.3	44	33.8	1	4	292	0.00	30.164 
14:20	55.3	55.3	55.3	44	33.8	0	2	315	0.00	30.164 
14:25	55.4	55.4	55.4	44	33.9	0	2	315	0.00	30.164 
14:30	55.6	55.6	55.6	41	32.3	1	3	315	0.00	30.162 
14:35	55.4	55.4	55.4	41	32.1	1	3	315	0.00	30.162 
14:40	55.6	55.6	55.6	42	32.9	2	5	270	0.00	30.162 
14:45	55.4	55.4	55.4	42	32.7	1	3	292	0.00	30.160 
14:50	55.3	55.3	55.3	43	33.2	1	3	315	0.00	30.160 
14:55	55.1	55.1	55.1	43	33.0	1	3	315	0.00	30.160 
15:00	55.1	55.1	55.1	44	33.6	1	3	315	0.00	30.168 
15:05	55.0	55.0	55.0	44	33.5	1	3	315	0.00	30.168 
15:10	54.8	54.8	54.8	43	32.7	1	3	315	0.00	30.168 
15:15	54.7	54.7	54.7	45	33.8	0	3	315	0.00	30.179 
15:20	54.7	54.7	54.7	44	33.2	0	2	315	0.00	30.179 
15:25	54.7	54.7	54.7	45	33.8	0	2	315	0.00	30.179 
15:30	55.0	55.0	55.0	45	34.1	0	3	315	0.00	30.196 
15:35	54.8	54.8	54.8	44	33.3	1	2	315	0.00	30.196 
15:40	55.0	55.0	55.0	46	34.6	1	3	225	0.00	30.196 
15:45	54.8	54.8	54.8	44	33.3	0	3	338	0.00	30.207 
15:50	54.8	54.8	54.8	44	33.3	1	3	338	0.00	30.207 
15:55	54.5	54.5	54.5	43	32.5	1	3	315	0.00	30.207 
16:00	54.4	54.4	54.4	43	32.4	1	4	292	0.00	30.193 
16:05	54.4	54.4	54.4	45	33.5	0	1	292	0.00	30.193 
16:10	54.2	54.2	54.2	44	32.8	0	1	292	0.00	30.193 
16:15	54.2	54.2	54.2	45	33.3	0	1	292	0.00	30.180 
16:20	54.4	54.4	54.4	45	33.5	0	2	292	0.00	30.180 
16:25	54.4	54.4	54.4	46	34.1	0	1	292	0.00	30.180 
16:30	54.4	54.4	54.4	46	34.1	0	2	292	0.00	30.161 
16:35	54.4	54.4	54.4	47	34.6	0	1	292	0.00	30.161 
16:40	54.4	54.4	54.4	46	34.1	0	1	292	0.00	30.161 
16:45	54.4	54.4	54.4	45	33.5	1	4	292	0.00	30.164 
16:50	54.5	54.5	54.5	45	33.6	0	2	292	0.00	30.164 
16:55	54.5	54.5	54.5	44	33.0	0	2	292	0.00	30.164 
17:00	54.4	54.4	54.4	44	32.9	0	1	292	0.00	30.163 
17:05	54.4	54.4	54.4	43	32.4	1	4	292	0.00	30.163 
17:10	54.4	54.4	54.4	44	32.9	0	1	292	0.00	30.163 
17:15	54.4	54.4	54.4	43	32.4	0	2	292	0.00	30.163 
17:20	54.4	54.4	54.4	46	34.1	0	1	292	0.00	30.163 
17:25	54.4	54.4	54.4	45	33.5	0	1	292	0.00	30.163 
17:30	54.4	54.4	54.4	44	32.9	0	0	---	0.00	30.178 
17:35	54.4	54.4	54.4	46	34.1	0	1	292	0.00	30.178 
17:40	54.4	54.4	54.4	44	32.9	0	2	292	0.00	30.178 
17:45	54.2	54.2	54.2	44	32.8	0	2	292	0.00	30.194 
17:50	54.2	54.2	54.2	43	32.2	0	2	292	0.00	30.194 
17:55	54.1	54.1	54.1	44	32.7	0	1	292	0.00	30.194 
18:00	54.1	54.1	54.1	44	32.7	0	1	292	0.00	30.208 
18:05	53.9	53.9	53.9	45	33.1	0	1	292	0.00	30.208 
18:10	53.9	53.9	53.9	42	31.3	0	2	292	0.00	30.208 
18:15	53.9	53.9	53.9	43	31.9	0	1	292	0.00	30.224 
18:20	53.9	53.9	53.9	44	32.5	0	0	---	0.00	30.224 
18:25	53.8	53.8	53.8	44	32.4	0	0	---	0.00	30.224 
18:30	53.8	53.8	53.8	44	32.4	0	0	---	0.00	30.215 
18:35	53.8	53.8	53.8	44	32.4	0	0	---	0.00	30.215 
18:40	53.6	53.6	53.6	44	32.2	0	0	---	0.00	30.215 
18:45	53.6	53.6	53.6	46	33.3	0	0	---	0.00	30.209 
18:50	53.6	53.6	53.6	45	32.8	0	0	---	0.00	30.209 
18:55	53.5	53.5	53.5	45	32.7	0	0	---	0.00	30.209 
19:00	53.5	53.5	53.5	44	32.1	0	0	---	0.00	30.211 
19:05	53.5	53.5	53.5	45	32.7	0	0	---	0.00	30.211 
19:10	53.3	53.3	53.3	45	32.5	0	0	---	0.00	30.211 
19:15	53.2	53.2	53.2	46	33.0	0	0	---	0.00	30.204 
19:20	53.2	53.2	53.2	46	33.0	0	0	---	0.00	30.204 
19:25	53.1	53.1	53.1	47	33.4	0	0	---	0.00	30.204 
19:30	52.9	52.9	52.9	47	33.2	0	0	---	0.00	30.194 
19:35	52.9	52.9	52.9	47	33.2	0	0	---	0.00	30.194 
19:40	52.8	52.8	52.8	47	33.1	0	0	---	0.00	30.194 
19:45	52.6	52.6	52.6	47	32.9	0	0	---	0.00	30.205 
19:50	52.6	52.6	52.6	46	32.4	0	0	---	0.00	30.205 
19:55	52.6	52.6	52.6	46	32.4	0	0	---	0.00	30.205 
20:00	52.5	52.5	52.5	46	32.3	0	0	---	0.00	30.212 
20:05	52.5	52.5	52.5	47	32.9	0	0	---	0.00	30.212 
20:10	52.5	52.5	52.5	47	32.9	0	0	---	0.00	30.212 
20:15	52.5	52.5	52.5	49	33.9	0	0	---	0.00	30.217 
20:20	52.3	52.3	52.3	50	34.2	0	0	---	0.00	30.217 
20:25	52.2	52.2	52.2	51	34.6	0	0	---	0.00	30.217 
20:30	52.0	52.0	52.0	51	34.4	0	0	---	0.00	30.213 
20:35	51.9	51.9	51.9	53	35.3	0	0	---	0.00	30.213 
20:40	51.7	51.7	51.7	54	35.6	0	1	292	0.00	30.213 
20:45	51.6	51.6	51.6	57	36.9	1	3	68	0.00	30.197 
20:50	51.1	51.1	51.1	62	38.5	1	4	135	0.00	30.197 
20:55	50.5	50.5	50.5	64	38.8	2	5	135	0.00	30.197 
21:00	49.9	49.9	49.9	65	38.6	2	6	112	0.00	30.199 
21:05	49.5	49.5	49.5	67	39.0	2	6	135	0.00	30.199 
21:10	49.2	49.2	49.2	68	39.1	1	3	135	0.00	30.199 
21:15	48.9	48.9	48.9	69	39.2	1	3	135	0.00	30.198 
21:20	48.6	48.6	48.6	71	39.6	0	3	112	0.00	30.198 
21:25	48.3	48.3	48.3	72	39.7	0	3	112	0.00	30.198 
21:30	48.2	48.2	48.2	73	40.0	0	1	112	0.00	30.191 
21:35	48.0	48.0	48.0	74	40.1	0	0	---	0.00	30.191 
21:40	47.9	47.9	47.9	75	40.4	0	0	---	0.00	30.191 
21:45	47.7	47.7	47.7	75	40.2	0	0	---	0.00	30.185 
21:50	47.6	47.6	47.6	76	40.4	0	0	---	0.00	30.185 
21:55	47.4	47.4	47.4	76	40.2	0	0	---	0.00	30.185 
22:00	47.4	47.4	47.4	77	40.6	0	0	---	0.00	30.182 
22:05	47.4	47.4	47.4	77	40.6	0	0	---	0.00	30.182 
22:10	47.3	47.3	47.3	77	40.5	0	1	112	0.00	30.182 
22:15	47.3	47.3	47.3	77	40.5	0	1	112	0.00	30.179 
22:20	47.3	47.3	47.3	77	40.5	0	0	---	0.00	30.179 
22:25	47.1	47.1	47.1	77	40.3	0	0	---	0.00	30.179 
22:30	47.1	47.1	47.1	78	40.6	0	0	---	0.00	30.179 
22:35	47.1	47.1	47.1	78	40.6	0	0	---	0.00	30.179 
22:40	47.1	47.1	47.1	78	40.6	0	0	---	0.00	30.179 
22:45	47.3	47.3	47.3	78	40.8	0	0	---	0.00	30.180 
22:50	47.1	47.1	47.1	79	40.9	0	0	---	0.00	30.180 
22:55	47.1	47.1	47.1	79	40.9	0	0	---	0.00	30.180 
23:00	47.1	47.1	47.1	79	40.9	0	0	---	0.00	30.181 
23:05	47.1	47.1	47.1	80	41.3	0	0	---	0.00	30.181 
23:10	47.1	47.1	47.1	80	41.3	0	0	---	0.00	30.181 
23:15	47.0	47.0	47.0	80	41.2	0	1	112	0.00	30.198 
23:20	47.0	47.0	47.0	79	40.8	0	1	112	0.00	30.198 
23:25	47.0	47.0	47.0	79	40.8	0	1	112	0.00	30.198 
23:30	47.0	47.0	47.0	79	40.8	0	1	112	0.00	30.224 
23:35	47.0	47.0	47.0	79	40.8	0	2	112	0.00	30.224 
23:40	46.8	46.8	46.8	79	40.6	0	1	112	0.00	30.224 
23:45	46.8	46.8	46.8	78	40.3	0	0	---	0.00	30.213 
23:50	46.8	46.8	46.8	78	40.3	0	0	---	0.00	30.213 
23:55	46.7	46.7	46.7	78	40.2	0	0	---	0.00	30.213 

CoCoRaHS
IN-AL-39
A2 Web Hosting
Creative Commons License
GoDaddy
search engine by freefind advanced

loaded 2018-11-17 00:31:53 • last modified 2010-11-18 10:43:29
Privacy PolicyDisclaimer
• wx.awcolley.com is powered by PmWiki v.2002016 •
• all content (unless otherwise noted) © 2018 A W Colley